sensor_id;sensor_type;location;lat;lon;timestamp;temperature;humidity
7360;DHT22;3720;48.274;7.796;2023-02-19T00:00:52;11.90;99.90
7360;DHT22;3720;48.274;7.796;2023-02-19T00:03:24;11.90;99.90
7360;DHT22;3720;48.274;7.796;2023-02-19T00:06:00;11.90;99.90
7360;DHT22;3720;48.274;7.796;2023-02-19T00:08:33;11.90;99.90
7360;DHT22;3720;48.274;7.796;2023-02-19T00:11:07;11.80;99.90
7360;DHT22;3720;48.274;7.796;2023-02-19T00:13:42;11.80;99.90
7360;DHT22;3720;48.274;7.796;2023-02-19T00:16:15;11.90;99.90
7360;DHT22;3720;48.274;7.796;2023-02-19T00:18:48;11.90;99.90
7360;DHT22;3720;48.274;7.796;2023-02-19T00:21:21;11.90;99.90
7360;DHT22;3720;48.274;7.796;2023-02-19T00:23:55;11.90;99.90
7360;DHT22;3720;48.274;7.796;2023-02-19T00:26:28;12.00;99.90
7360;DHT22;3720;48.274;7.796;2023-02-19T00:29:00;12.00;99.90
7360;DHT22;3720;48.274;7.796;2023-02-19T00:31:34;11.90;99.90
7360;DHT22;3720;48.274;7.796;2023-02-19T00:34:06;11.90;99.90
7360;DHT22;3720;48.274;7.796;2023-02-19T00:36:41;11.90;99.90
7360;DHT22;3720;48.274;7.796;2023-02-19T00:39:15;11.90;99.90
7360;DHT22;3720;48.274;7.796;2023-02-19T00:41:47;12.00;99.90
7360;DHT22;3720;48.274;7.796;2023-02-19T00:44:19;12.00;99.90
7360;DHT22;3720;48.274;7.796;2023-02-19T00:46:51;12.00;99.90
7360;DHT22;3720;48.274;7.796;2023-02-19T00:49:24;12.00;99.90
7360;DHT22;3720;48.274;7.796;2023-02-19T00:51:57;11.90;99.90
7360;DHT22;3720;48.274;7.796;2023-02-19T00:54:29;11.90;99.90
7360;DHT22;3720;48.274;7.796;2023-02-19T00:57:01;11.80;99.90
7360;DHT22;3720;48.274;7.796;2023-02-19T00:59:33;11.80;99.90
7360;DHT22;3720;48.274;7.796;2023-02-19T01:02:06;11.80;99.90
7360;DHT22;3720;48.274;7.796;2023-02-19T01:04:38;11.80;99.90
7360;DHT22;3720;48.274;7.796;2023-02-19T01:07:11;11.80;99.90
7360;DHT22;3720;48.274;7.796;2023-02-19T01:09:43;11.70;99.90
7360;DHT22;3720;48.274;7.796;2023-02-19T01:12:15;11.60;99.90
7360;DHT22;3720;48.274;7.796;2023-02-19T01:14:47;11.70;99.90
7360;DHT22;3720;48.274;7.796;2023-02-19T01:17:19;11.70;99.90
7360;DHT22;3720;48.274;7.796;2023-02-19T01:19:51;11.60;99.90
7360;DHT22;3720;48.274;7.796;2023-02-19T01:22:25;11.60;99.90
7360;DHT22;3720;48.274;7.796;2023-02-19T01:24:57;11.60;99.90
7360;DHT22;3720;48.274;7.796;2023-02-19T01:27:29;11.60;99.90
7360;DHT22;3720;48.274;7.796;2023-02-19T01:30:00;11.50;99.90
7360;DHT22;3720;48.274;7.796;2023-02-19T01:32:32;11.50;99.90
7360;DHT22;3720;48.274;7.796;2023-02-19T01:35:05;11.60;99.90
7360;DHT22;3720;48.274;7.796;2023-02-19T01:37:38;11.60;99.90
7360;DHT22;3720;48.274;7.796;2023-02-19T01:40:10;11.60;99.90
7360;DHT22;3720;48.274;7.796;2023-02-19T01:42:42;11.60;99.90
7360;DHT22;3720;48.274;7.796;2023-02-19T01:45:25;11.70;99.90
7360;DHT22;3720;48.274;7.796;2023-02-19T01:48:05;11.70;99.90
7360;DHT22;3720;48.274;7.796;2023-02-19T01:50:42;11.70;99.90
7360;DHT22;3720;48.274;7.796;2023-02-19T01:53:19;11.60;99.90
7360;DHT22;3720;48.274;7.796;2023-02-19T01:55:55;11.60;99.90
7360;DHT22;3720;48.274;7.796;2023-02-19T01:58:31;11.60;99.90
7360;DHT22;3720;48.274;7.796;2023-02-19T02:01:10;11.50;99.90
7360;DHT22;3720;48.274;7.796;2023-02-19T02:03:47;11.60;99.90
7360;DHT22;3720;48.274;7.796;2023-02-19T02:06:22;11.60;99.90
7360;DHT22;3720;48.274;7.796;2023-02-19T02:08:57;11.60;99.90
7360;DHT22;3720;48.274;7.796;2023-02-19T02:11:49;11.60;99.90
7360;DHT22;3720;48.274;7.796;2023-02-19T02:14:24;11.60;99.90
7360;DHT22;3720;48.274;7.796;2023-02-19T02:17:03;11.50;99.90
7360;DHT22;3720;48.274;7.796;2023-02-19T02:20:00;11.40;99.90
7360;DHT22;3720;48.274;7.796;2023-02-19T02:22:52;11.30;99.90
7360;DHT22;3720;48.274;7.796;2023-02-19T02:26:06;11.20;99.90
7360;DHT22;3720;48.274;7.796;2023-02-19T02:29:04;11.20;99.90
7360;DHT22;3720;48.274;7.796;2023-02-19T02:31:42;11.20;99.90
7360;DHT22;3720;48.274;7.796;2023-02-19T02:34:19;11.20;99.90
7360;DHT22;3720;48.274;7.796;2023-02-19T02:36:53;11.20;99.90
7360;DHT22;3720;48.274;7.796;2023-02-19T02:39:27;11.30;99.90
7360;DHT22;3720;48.274;7.796;2023-02-19T02:42:01;11.20;99.90
7360;DHT22;3720;48.274;7.796;2023-02-19T02:44:50;11.20;99.90
7360;DHT22;3720;48.274;7.796;2023-02-19T02:47:41;11.30;99.90
7360;DHT22;3720;48.274;7.796;2023-02-19T02:50:20;11.20;99.90
7360;DHT22;3720;48.274;7.796;2023-02-19T02:52:56;11.10;99.90
7360;DHT22;3720;48.274;7.796;2023-02-19T02:55:50;11.00;99.90
7360;DHT22;3720;48.274;7.796;2023-02-19T02:58:24;10.90;99.90
7360;DHT22;3720;48.274;7.796;2023-02-19T03:01:00;10.90;99.90
7360;DHT22;3720;48.274;7.796;2023-02-19T03:03:54;10.90;99.90
7360;DHT22;3720;48.274;7.796;2023-02-19T03:06:29;11.00;99.90
7360;DHT22;3720;48.274;7.796;2023-02-19T03:09:06;11.00;99.90
7360;DHT22;3720;48.274;7.796;2023-02-19T03:11:42;10.90;99.90
7360;DHT22;3720;48.274;7.796;2023-02-19T03:14:36;10.90;99.90
7360;DHT22;3720;48.274;7.796;2023-02-19T03:17:31;10.90;99.90
7360;DHT22;3720;48.274;7.796;2023-02-19T03:20:24;11.10;99.90
7360;DHT22;3720;48.274;7.796;2023-02-19T03:22:58;11.00;99.90
7360;DHT22;3720;48.274;7.796;2023-02-19T03:25:32;11.10;99.90
7360;DHT22;3720;48.274;7.796;2023-02-19T03:28:25;11.10;99.90
7360;DHT22;3720;48.274;7.796;2023-02-19T03:31:14;11.10;99.90
7360;DHT22;3720;48.274;7.796;2023-02-19T03:33:51;11.10;99.90
7360;DHT22;3720;48.274;7.796;2023-02-19T03:36:32;11.00;99.90
7360;DHT22;3720;48.274;7.796;2023-02-19T03:39:06;11.00;99.90
7360;DHT22;3720;48.274;7.796;2023-02-19T03:41:43;11.00;99.90
7360;DHT22;3720;48.274;7.796;2023-02-19T03:44:19;11.00;99.90
7360;DHT22;3720;48.274;7.796;2023-02-19T03:46:58;10.90;99.90
7360;DHT22;3720;48.274;7.796;2023-02-19T03:49:40;10.90;99.90
7360;DHT22;3720;48.274;7.796;2023-02-19T03:52:17;10.80;99.90
7360;DHT22;3720;48.274;7.796;2023-02-19T03:54:55;10.80;99.90
7360;DHT22;3720;48.274;7.796;2023-02-19T03:57:32;10.80;99.90
7360;DHT22;3720;48.274;7.796;2023-02-19T04:00:10;10.80;99.90
7360;DHT22;3720;48.274;7.796;2023-02-19T04:02:49;10.80;99.90
7360;DHT22;3720;48.274;7.796;2023-02-19T04:05:25;10.80;99.90
7360;DHT22;3720;48.274;7.796;2023-02-19T04:08:03;10.80;99.90
7360;DHT22;3720;48.274;7.796;2023-02-19T04:10:36;10.80;99.90
7360;DHT22;3720;48.274;7.796;2023-02-19T04:13:11;10.80;99.90
7360;DHT22;3720;48.274;7.796;2023-02-19T04:15:46;10.70;99.90
7360;DHT22;3720;48.274;7.796;2023-02-19T04:18:23;10.80;99.90
7360;DHT22;3720;48.274;7.796;2023-02-19T04:20:56;10.80;99.90
7360;DHT22;3720;48.274;7.796;2023-02-19T04:23:35;10.80;99.90
7360;DHT22;3720;48.274;7.796;2023-02-19T04:26:10;10.80;99.90
7360;DHT22;3720;48.274;7.796;2023-02-19T04:28:43;10.70;99.90
7360;DHT22;3720;48.274;7.796;2023-02-19T04:31:14;10.80;99.90
7360;DHT22;3720;48.274;7.796;2023-02-19T04:33:46;10.80;99.90
7360;DHT22;3720;48.274;7.796;2023-02-19T04:36:18;10.80;99.90
7360;DHT22;3720;48.274;7.796;2023-02-19T04:38:52;10.80;99.90
7360;DHT22;3720;48.274;7.796;2023-02-19T04:41:24;10.70;99.90
7360;DHT22;3720;48.274;7.796;2023-02-19T04:43:56;10.60;99.90
7360;DHT22;3720;48.274;7.796;2023-02-19T04:46:27;10.60;99.90
7360;DHT22;3720;48.274;7.796;2023-02-19T04:48:59;10.60;99.90
7360;DHT22;3720;48.274;7.796;2023-02-19T04:51:31;10.70;99.90
7360;DHT22;3720;48.274;7.796;2023-02-19T04:54:04;10.70;99.90
7360;DHT22;3720;48.274;7.796;2023-02-19T04:56:38;10.60;99.90
7360;DHT22;3720;48.274;7.796;2023-02-19T04:59:10;10.60;99.90
7360;DHT22;3720;48.274;7.796;2023-02-19T05:01:42;10.60;99.90
7360;DHT22;3720;48.274;7.796;2023-02-19T05:04:14;10.60;99.90
7360;DHT22;3720;48.274;7.796;2023-02-19T05:06:45;10.60;99.90
7360;DHT22;3720;48.274;7.796;2023-02-19T05:09:19;10.60;99.90
7360;DHT22;3720;48.274;7.796;2023-02-19T05:11:51;10.60;99.90
7360;DHT22;3720;48.274;7.796;2023-02-19T05:14:23;10.60;99.90
7360;DHT22;3720;48.274;7.796;2023-02-19T05:16:55;10.60;99.90
7360;DHT22;3720;48.274;7.796;2023-02-19T05:19:27;10.60;99.90
7360;DHT22;3720;48.274;7.796;2023-02-19T05:21:59;10.60;99.90
7360;DHT22;3720;48.274;7.796;2023-02-19T05:24:32;10.60;99.90
7360;DHT22;3720;48.274;7.796;2023-02-19T05:27:04;10.60;99.90
7360;DHT22;3720;48.274;7.796;2023-02-19T05:29:36;10.60;99.90
7360;DHT22;3720;48.274;7.796;2023-02-19T05:32:08;10.50;99.90
7360;DHT22;3720;48.274;7.796;2023-02-19T05:34:40;10.50;99.90
7360;DHT22;3720;48.274;7.796;2023-02-19T05:37:12;10.50;99.90
7360;DHT22;3720;48.274;7.796;2023-02-19T05:39:46;10.40;99.90
7360;DHT22;3720;48.274;7.796;2023-02-19T05:42:18;10.40;99.90
7360;DHT22;3720;48.274;7.796;2023-02-19T05:44:50;10.40;99.90
7360;DHT22;3720;48.274;7.796;2023-02-19T05:47:22;10.40;99.90
7360;DHT22;3720;48.274;7.796;2023-02-19T05:49:54;10.30;99.90
7360;DHT22;3720;48.274;7.796;2023-02-19T05:52:26;10.30;99.90
7360;DHT22;3720;48.274;7.796;2023-02-19T05:54:59;10.20;99.90
7360;DHT22;3720;48.274;7.796;2023-02-19T05:57:31;10.20;99.90
7360;DHT22;3720;48.274;7.796;2023-02-19T06:00:04;10.20;99.90
7360;DHT22;3720;48.274;7.796;2023-02-19T06:02:36;10.20;99.90
7360;DHT22;3720;48.274;7.796;2023-02-19T06:05:08;10.10;99.90
7360;DHT22;3720;48.274;7.796;2023-02-19T06:07:40;10.10;99.90
7360;DHT22;3720;48.274;7.796;2023-02-19T06:10:13;10.10;99.90
7360;DHT22;3720;48.274;7.796;2023-02-19T06:12:45;10.20;99.90
7360;DHT22;3720;48.274;7.796;2023-02-19T06:15:17;10.10;99.90
7360;DHT22;3720;48.274;7.796;2023-02-19T06:17:49;10.10;99.90
7360;DHT22;3720;48.274;7.796;2023-02-19T06:20:21;10.00;99.90
7360;DHT22;3720;48.274;7.796;2023-02-19T06:22:52;9.90;99.90
7360;DHT22;3720;48.274;7.796;2023-02-19T06:25:26;9.70;99.90
7360;DHT22;3720;48.274;7.796;2023-02-19T06:27:58;9.70;99.90
7360;DHT22;3720;48.274;7.796;2023-02-19T06:30:30;9.80;99.90
7360;DHT22;3720;48.274;7.796;2023-02-19T06:33:02;9.80;99.90
7360;DHT22;3720;48.274;7.796;2023-02-19T06:35:35;9.80;99.90
7360;DHT22;3720;48.274;7.796;2023-02-19T06:38:07;9.80;99.90
7360;DHT22;3720;48.274;7.796;2023-02-19T06:40:40;9.80;99.90
7360;DHT22;3720;48.274;7.796;2023-02-19T06:43:12;9.70;99.90
7360;DHT22;3720;48.274;7.796;2023-02-19T06:45:44;9.70;99.90
7360;DHT22;3720;48.274;7.796;2023-02-19T06:48:16;9.70;99.90
7360;DHT22;3720;48.274;7.796;2023-02-19T06:50:48;9.80;99.90
7360;DHT22;3720;48.274;7.796;2023-02-19T06:53:20;9.80;99.90
7360;DHT22;3720;48.274;7.796;2023-02-19T06:55:58;9.80;99.90
7360;DHT22;3720;48.274;7.796;2023-02-19T06:58:31;9.90;99.90
7360;DHT22;3720;48.274;7.796;2023-02-19T07:01:04;9.80;99.90
7360;DHT22;3720;48.274;7.796;2023-02-19T07:03:36;9.80;99.90
7360;DHT22;3720;48.274;7.796;2023-02-19T07:06:08;9.70;99.90
7360;DHT22;3720;48.274;7.796;2023-02-19T07:08:39;9.60;99.90
7360;DHT22;3720;48.274;7.796;2023-02-19T07:11:13;9.50;99.90
7360;DHT22;3720;48.274;7.796;2023-02-19T07:13:45;9.60;99.90
7360;DHT22;3720;48.274;7.796;2023-02-19T07:16:17;9.60;99.90
7360;DHT22;3720;48.274;7.796;2023-02-19T07:18:49;9.60;99.90
7360;DHT22;3720;48.274;7.796;2023-02-19T07:21:22;9.50;99.90
7360;DHT22;3720;48.274;7.796;2023-02-19T07:23:54;9.50;99.90
7360;DHT22;3720;48.274;7.796;2023-02-19T07:26:28;9.50;99.90
7360;DHT22;3720;48.274;7.796;2023-02-19T07:29:00;9.50;99.90
7360;DHT22;3720;48.274;7.796;2023-02-19T07:31:32;9.60;99.90
7360;DHT22;3720;48.274;7.796;2023-02-19T07:34:04;9.60;99.90
7360;DHT22;3720;48.274;7.796;2023-02-19T07:36:37;9.70;99.90
7360;DHT22;3720;48.274;7.796;2023-02-19T07:39:12;9.70;99.90
7360;DHT22;3720;48.274;7.796;2023-02-19T07:41:46;9.70;99.90
7360;DHT22;3720;48.274;7.796;2023-02-19T07:44:18;9.60;99.90
7360;DHT22;3720;48.274;7.796;2023-02-19T07:46:50;9.60;99.90
7360;DHT22;3720;48.274;7.796;2023-02-19T07:49:22;9.60;99.90
7360;DHT22;3720;48.274;7.796;2023-02-19T07:51:54;9.70;99.90
7360;DHT22;3720;48.274;7.796;2023-02-19T07:54:26;9.80;99.90
7360;DHT22;3720;48.274;7.796;2023-02-19T07:57:00;9.80;99.90
7360;DHT22;3720;48.274;7.796;2023-02-19T07:59:33;9.80;99.90
7360;DHT22;3720;48.274;7.796;2023-02-19T08:02:10;9.80;99.90
7360;DHT22;3720;48.274;7.796;2023-02-19T08:05:04;9.80;99.90
7360;DHT22;3720;48.274;7.796;2023-02-19T08:07:37;9.80;99.90
7360;DHT22;3720;48.274;7.796;2023-02-19T08:10:09;9.90;99.90
7360;DHT22;3720;48.274;7.796;2023-02-19T08:13:00;9.90;99.90
7360;DHT22;3720;48.274;7.796;2023-02-19T08:15:53;10.00;99.90
7360;DHT22;3720;48.274;7.796;2023-02-19T08:18:28;10.00;99.90
7360;DHT22;3720;48.274;7.796;2023-02-19T08:21:00;10.10;99.90
7360;DHT22;3720;48.274;7.796;2023-02-19T08:23:32;10.20;99.90
7360;DHT22;3720;48.274;7.796;2023-02-19T08:26:05;10.20;99.90
7360;DHT22;3720;48.274;7.796;2023-02-19T08:28:39;10.20;99.90
7360;DHT22;3720;48.274;7.796;2023-02-19T08:31:11;10.20;99.90
7360;DHT22;3720;48.274;7.796;2023-02-19T08:33:43;10.20;99.90
7360;DHT22;3720;48.274;7.796;2023-02-19T08:36:15;10.20;99.90
7360;DHT22;3720;48.274;7.796;2023-02-19T08:38:47;10.30;99.90
7360;DHT22;3720;48.274;7.796;2023-02-19T08:41:19;10.40;99.90
7360;DHT22;3720;48.274;7.796;2023-02-19T08:43:53;10.50;99.90
7360;DHT22;3720;48.274;7.796;2023-02-19T08:46:25;10.50;99.90
7360;DHT22;3720;48.274;7.796;2023-02-19T08:48:57;10.60;99.90
7360;DHT22;3720;48.274;7.796;2023-02-19T08:51:29;10.50;99.90
7360;DHT22;3720;48.274;7.796;2023-02-19T08:54:01;10.50;99.90
7360;DHT22;3720;48.274;7.796;2023-02-19T08:56:34;10.60;99.90
7360;DHT22;3720;48.274;7.796;2023-02-19T08:59:07;10.60;99.90
7360;DHT22;3720;48.274;7.796;2023-02-19T09:01:39;10.60;99.90
7360;DHT22;3720;48.274;7.796;2023-02-19T09:04:11;10.60;99.90
7360;DHT22;3720;48.274;7.796;2023-02-19T09:06:43;10.60;99.90
7360;DHT22;3720;48.274;7.796;2023-02-19T09:09:15;10.60;99.90
7360;DHT22;3720;48.274;7.796;2023-02-19T09:11:47;10.60;99.90
7360;DHT22;3720;48.274;7.796;2023-02-19T09:14:21;10.60;99.90
7360;DHT22;3720;48.274;7.796;2023-02-19T09:16:53;10.70;99.90
7360;DHT22;3720;48.274;7.796;2023-02-19T09:19:25;10.60;99.90
7360;DHT22;3720;48.274;7.796;2023-02-19T09:21:57;10.70;99.90
7360;DHT22;3720;48.274;7.796;2023-02-19T09:24:29;10.60;99.90
7360;DHT22;3720;48.274;7.796;2023-02-19T09:27:01;10.70;99.90
7360;DHT22;3720;48.274;7.796;2023-02-19T09:29:35;10.70;99.90
7360;DHT22;3720;48.274;7.796;2023-02-19T09:32:07;10.70;99.90
7360;DHT22;3720;48.274;7.796;2023-02-19T09:34:39;10.80;99.90
7360;DHT22;3720;48.274;7.796;2023-02-19T09:37:11;10.90;99.90
7360;DHT22;3720;48.274;7.796;2023-02-19T09:39:43;10.90;99.90
7360;DHT22;3720;48.274;7.796;2023-02-19T09:42:17;11.00;99.90
7360;DHT22;3720;48.274;7.796;2023-02-19T09:44:53;11.10;99.90
7360;DHT22;3720;48.274;7.796;2023-02-19T09:47:27;11.10;99.90
7360;DHT22;3720;48.274;7.796;2023-02-19T09:50:05;11.20;99.90
7360;DHT22;3720;48.274;7.796;2023-02-19T09:52:40;11.20;99.90
7360;DHT22;3720;48.274;7.796;2023-02-19T09:55:17;11.20;99.90
7360;DHT22;3720;48.274;7.796;2023-02-19T09:57:53;11.20;99.90
7360;DHT22;3720;48.274;7.796;2023-02-19T10:00:29;11.30;99.90
7360;DHT22;3720;48.274;7.796;2023-02-19T10:03:04;11.40;99.90
7360;DHT22;3720;48.274;7.796;2023-02-19T10:05:38;11.40;99.90
7360;DHT22;3720;48.274;7.796;2023-02-19T10:08:16;11.40;99.90
7360;DHT22;3720;48.274;7.796;2023-02-19T10:10:49;11.50;99.90
7360;DHT22;3720;48.274;7.796;2023-02-19T10:13:23;11.60;99.90
7360;DHT22;3720;48.274;7.796;2023-02-19T10:16:02;11.60;99.90
7360;DHT22;3720;48.274;7.796;2023-02-19T10:18:37;11.70;99.90
7360;DHT22;3720;48.274;7.796;2023-02-19T10:21:14;11.70;99.90
7360;DHT22;3720;48.274;7.796;2023-02-19T10:23:48;11.70;99.90
7360;DHT22;3720;48.274;7.796;2023-02-19T10:26:22;11.70;99.90
7360;DHT22;3720;48.274;7.796;2023-02-19T10:28:54;11.70;99.90
7360;DHT22;3720;48.274;7.796;2023-02-19T10:31:30;11.80;99.90
7360;DHT22;3720;48.274;7.796;2023-02-19T10:34:02;11.80;99.90
7360;DHT22;3720;48.274;7.796;2023-02-19T10:36:38;11.80;99.90
7360;DHT22;3720;48.274;7.796;2023-02-19T10:39:31;11.90;99.90
7360;DHT22;3720;48.274;7.796;2023-02-19T10:42:13;11.90;99.90
7360;DHT22;3720;48.274;7.796;2023-02-19T10:44:48;11.90;99.90
7360;DHT22;3720;48.274;7.796;2023-02-19T10:47:25;11.90;99.90
7360;DHT22;3720;48.274;7.796;2023-02-19T10:49:58;11.90;99.90
7360;DHT22;3720;48.274;7.796;2023-02-19T10:52:33;11.90;99.90
7360;DHT22;3720;48.274;7.796;2023-02-19T10:55:23;11.90;99.90
7360;DHT22;3720;48.274;7.796;2023-02-19T10:57:55;12.00;99.90
7360;DHT22;3720;48.274;7.796;2023-02-19T11:00:29;11.90;99.90
7360;DHT22;3720;48.274;7.796;2023-02-19T11:03:19;11.90;99.90
7360;DHT22;3720;48.274;7.796;2023-02-19T11:05:58;12.00;99.90
7360;DHT22;3720;48.274;7.796;2023-02-19T11:08:44;12.00;99.90
7360;DHT22;3720;48.274;7.796;2023-02-19T11:11:31;12.10;99.90
7360;DHT22;3720;48.274;7.796;2023-02-19T11:14:12;12.10;99.90
7360;DHT22;3720;48.274;7.796;2023-02-19T11:16:47;12.10;99.90
7360;DHT22;3720;48.274;7.796;2023-02-19T11:19:28;12.10;99.90
7360;DHT22;3720;48.274;7.796;2023-02-19T11:22:00;12.10;99.90
7360;DHT22;3720;48.274;7.796;2023-02-19T11:24:35;12.00;99.90
7360;DHT22;3720;48.274;7.796;2023-02-19T11:27:17;12.00;99.90
7360;DHT22;3720;48.274;7.796;2023-02-19T11:29:49;12.00;99.90
7360;DHT22;3720;48.274;7.796;2023-02-19T11:32:27;12.00;99.90
7360;DHT22;3720;48.274;7.796;2023-02-19T11:35:21;12.00;99.90
7360;DHT22;3720;48.274;7.796;2023-02-19T11:37:57;12.00;99.90
7360;DHT22;3720;48.274;7.796;2023-02-19T11:40:38;12.10;99.90
7360;DHT22;3720;48.274;7.796;2023-02-19T11:43:34;12.10;99.90
7360;DHT22;3720;48.274;7.796;2023-02-19T11:46:16;12.10;99.90
7360;DHT22;3720;48.274;7.796;2023-02-19T11:48:52;12.10;99.90
7360;DHT22;3720;48.274;7.796;2023-02-19T11:51:40;12.00;99.90
7360;DHT22;3720;48.274;7.796;2023-02-19T11:54:23;12.00;99.90
7360;DHT22;3720;48.274;7.796;2023-02-19T11:57:05;12.00;99.90
7360;DHT22;3720;48.274;7.796;2023-02-19T11:59:45;12.10;99.90
7360;DHT22;3720;48.274;7.796;2023-02-19T12:02:34;12.10;99.90
7360;DHT22;3720;48.274;7.796;2023-02-19T12:05:20;12.10;99.90
7360;DHT22;3720;48.274;7.796;2023-02-19T12:08:34;12.00;99.90
7360;DHT22;3720;48.274;7.796;2023-02-19T12:11:24;12.00;99.90
7360;DHT22;3720;48.274;7.796;2023-02-19T12:14:11;12.00;99.90
7360;DHT22;3720;48.274;7.796;2023-02-19T12:16:49;12.10;99.90
7360;DHT22;3720;48.274;7.796;2023-02-19T12:19:41;12.10;99.90
7360;DHT22;3720;48.274;7.796;2023-02-19T12:22:28;12.20;99.90
7360;DHT22;3720;48.274;7.796;2023-02-19T12:28:30;12.30;99.90
7360;DHT22;3720;48.274;7.796;2023-02-19T12:31:31;12.30;99.90
7360;DHT22;3720;48.274;7.796;2023-02-19T12:34:17;12.30;99.90
7360;DHT22;3720;48.274;7.796;2023-02-19T12:36:58;12.40;99.90
7360;DHT22;3720;48.274;7.796;2023-02-19T12:39:40;12.30;99.90
7360;DHT22;3720;48.274;7.796;2023-02-19T12:42:36;12.30;99.90
7360;DHT22;3720;48.274;7.796;2023-02-19T12:45:17;12.30;99.90
7360;DHT22;3720;48.274;7.796;2023-02-19T12:47:56;12.30;99.90
7360;DHT22;3720;48.274;7.796;2023-02-19T12:50:30;12.40;99.90
7360;DHT22;3720;48.274;7.796;2023-02-19T12:53:07;12.40;99.90
7360;DHT22;3720;48.274;7.796;2023-02-19T12:55:43;12.40;99.90
7360;DHT22;3720;48.274;7.796;2023-02-19T12:58:23;12.40;99.90
7360;DHT22;3720;48.274;7.796;2023-02-19T13:00:58;12.40;99.90
7360;DHT22;3720;48.274;7.796;2023-02-19T13:03:34;12.40;99.90
7360;DHT22;3720;48.274;7.796;2023-02-19T13:06:13;12.40;99.90
7360;DHT22;3720;48.274;7.796;2023-02-19T13:08:54;12.50;99.90
7360;DHT22;3720;48.274;7.796;2023-02-19T13:11:30;12.60;99.90
7360;DHT22;3720;48.274;7.796;2023-02-19T13:14:11;12.50;99.90
7360;DHT22;3720;48.274;7.796;2023-02-19T13:16:53;12.60;99.90
7360;DHT22;3720;48.274;7.796;2023-02-19T13:19:26;12.50;99.90
7360;DHT22;3720;48.274;7.796;2023-02-19T13:22:06;12.50;99.90
7360;DHT22;3720;48.274;7.796;2023-02-19T13:25:04;12.50;99.90
7360;DHT22;3720;48.274;7.796;2023-02-19T13:31:00;12.40;99.90
7360;DHT22;3720;48.274;7.796;2023-02-19T13:33:43;12.40;99.90
7360;DHT22;3720;48.274;7.796;2023-02-19T13:36:20;12.40;99.90
7360;DHT22;3720;48.274;7.796;2023-02-19T13:38:55;12.40;99.90
7360;DHT22;3720;48.274;7.796;2023-02-19T13:41:38;12.40;99.90
7360;DHT22;3720;48.274;7.796;2023-02-19T13:44:16;12.40;99.90
7360;DHT22;3720;48.274;7.796;2023-02-19T13:46:50;12.40;99.90
7360;DHT22;3720;48.274;7.796;2023-02-19T13:49:41;12.40;99.90
7360;DHT22;3720;48.274;7.796;2023-02-19T13:52:38;12.30;99.90
7360;DHT22;3720;48.274;7.796;2023-02-19T13:55:47;12.30;99.90
7360;DHT22;3720;48.274;7.796;2023-02-19T14:04:53;12.10;99.90
7360;DHT22;3720;48.274;7.796;2023-02-19T14:07:48;12.10;99.90
7360;DHT22;3720;48.274;7.796;2023-02-19T14:13:57;12.10;99.90
7360;DHT22;3720;48.274;7.796;2023-02-19T14:16:56;12.10;99.90
7360;DHT22;3720;48.274;7.796;2023-02-19T14:19:53;12.10;99.90
7360;DHT22;3720;48.274;7.796;2023-02-19T14:22:59;12.10;99.90
7360;DHT22;3720;48.274;7.796;2023-02-19T14:25:59;12.10;99.90
7360;DHT22;3720;48.274;7.796;2023-02-19T14:28:35;12.00;99.90
7360;DHT22;3720;48.274;7.796;2023-02-19T14:31:18;12.00;99.90
7360;DHT22;3720;48.274;7.796;2023-02-19T14:33:53;11.90;99.90
7360;DHT22;3720;48.274;7.796;2023-02-19T14:36:44;11.90;99.90
7360;DHT22;3720;48.274;7.796;2023-02-19T14:39:22;11.90;99.90
7360;DHT22;3720;48.274;7.796;2023-02-19T14:41:56;11.90;99.90
7360;DHT22;3720;48.274;7.796;2023-02-19T14:44:34;11.90;99.90
7360;DHT22;3720;48.274;7.796;2023-02-19T14:47:14;11.90;99.90
7360;DHT22;3720;48.274;7.796;2023-02-19T14:49:49;11.90;99.90
7360;DHT22;3720;48.274;7.796;2023-02-19T14:52:26;11.90;99.90
7360;DHT22;3720;48.274;7.796;2023-02-19T14:55:05;11.90;99.90
7360;DHT22;3720;48.274;7.796;2023-02-19T14:57:40;11.90;99.90
7360;DHT22;3720;48.274;7.796;2023-02-19T15:00:23;11.90;99.90
7360;DHT22;3720;48.274;7.796;2023-02-19T15:02:56;11.90;99.90
7360;DHT22;3720;48.274;7.796;2023-02-19T15:05:31;12.00;99.90
7360;DHT22;3720;48.274;7.796;2023-02-19T15:08:07;12.00;99.90
7360;DHT22;3720;48.274;7.796;2023-02-19T15:10:41;12.00;99.90
7360;DHT22;3720;48.274;7.796;2023-02-19T15:13:20;12.00;99.90
7360;DHT22;3720;48.274;7.796;2023-02-19T15:15:56;12.00;99.90
7360;DHT22;3720;48.274;7.796;2023-02-19T15:18:28;12.00;99.90
7360;DHT22;3720;48.274;7.796;2023-02-19T15:21:05;12.00;99.90
7360;DHT22;3720;48.274;7.796;2023-02-19T15:23:39;12.00;99.90
7360;DHT22;3720;48.274;7.796;2023-02-19T15:26:19;12.00;99.90
7360;DHT22;3720;48.274;7.796;2023-02-19T15:28:58;12.10;99.90
7360;DHT22;3720;48.274;7.796;2023-02-19T15:31:31;12.00;99.90
7360;DHT22;3720;48.274;7.796;2023-02-19T15:34:13;11.90;99.90
7360;DHT22;3720;48.274;7.796;2023-02-19T15:36:47;12.00;99.90
7360;DHT22;3720;48.274;7.796;2023-02-19T15:39:23;12.00;99.90
7360;DHT22;3720;48.274;7.796;2023-02-19T15:41:57;11.90;99.90
7360;DHT22;3720;48.274;7.796;2023-02-19T15:44:36;11.90;99.90
7360;DHT22;3720;48.274;7.796;2023-02-19T15:47:15;11.90;99.90
7360;DHT22;3720;48.274;7.796;2023-02-19T15:49:53;11.90;99.90
7360;DHT22;3720;48.274;7.796;2023-02-19T15:52:31;11.90;99.90
7360;DHT22;3720;48.274;7.796;2023-02-19T15:55:22;11.90;99.90
7360;DHT22;3720;48.274;7.796;2023-02-19T15:58:02;11.90;99.90
7360;DHT22;3720;48.274;7.796;2023-02-19T16:00:42;11.90;99.90
7360;DHT22;3720;48.274;7.796;2023-02-19T16:03:18;11.90;99.90
7360;DHT22;3720;48.274;7.796;2023-02-19T16:06:01;11.90;99.90
7360;DHT22;3720;48.274;7.796;2023-02-19T16:08:34;11.80;99.90
7360;DHT22;3720;48.274;7.796;2023-02-19T16:11:25;11.80;99.90
7360;DHT22;3720;48.274;7.796;2023-02-19T16:14:21;11.70;99.90
7360;DHT22;3720;48.274;7.796;2023-02-19T16:16:54;11.70;99.90
7360;DHT22;3720;48.274;7.796;2023-02-19T16:19:28;11.70;99.90
7360;DHT22;3720;48.274;7.796;2023-02-19T16:22:02;11.70;99.90
7360;DHT22;3720;48.274;7.796;2023-02-19T16:24:36;11.70;99.90
7360;DHT22;3720;48.274;7.796;2023-02-19T16:27:27;11.60;99.90
7360;DHT22;3720;48.274;7.796;2023-02-19T16:30:05;11.60;99.90
7360;DHT22;3720;48.274;7.796;2023-02-19T16:32:38;11.60;99.90
7360;DHT22;3720;48.274;7.796;2023-02-19T16:35:34;11.60;99.90
7360;DHT22;3720;48.274;7.796;2023-02-19T16:38:11;11.60;99.90
7360;DHT22;3720;48.274;7.796;2023-02-19T16:41:11;11.50;99.90
7360;DHT22;3720;48.274;7.796;2023-02-19T16:43:44;11.50;99.90
7360;DHT22;3720;48.274;7.796;2023-02-19T16:46:16;11.50;99.90
7360;DHT22;3720;48.274;7.796;2023-02-19T16:48:49;11.60;99.90
7360;DHT22;3720;48.274;7.796;2023-02-19T16:51:23;11.50;99.90
7360;DHT22;3720;48.274;7.796;2023-02-19T16:53:55;11.50;99.90
7360;DHT22;3720;48.274;7.796;2023-02-19T16:56:27;11.60;99.90
7360;DHT22;3720;48.274;7.796;2023-02-19T16:59:01;11.50;99.90
7360;DHT22;3720;48.274;7.796;2023-02-19T17:01:34;11.50;99.90
7360;DHT22;3720;48.274;7.796;2023-02-19T17:04:09;11.40;99.90
7360;DHT22;3720;48.274;7.796;2023-02-19T17:06:41;11.40;99.90
7360;DHT22;3720;48.274;7.796;2023-02-19T17:09:13;11.40;99.90
7360;DHT22;3720;48.274;7.796;2023-02-19T17:11:45;11.40;99.90
7360;DHT22;3720;48.274;7.796;2023-02-19T17:14:18;11.30;99.90
7360;DHT22;3720;48.274;7.796;2023-02-19T17:16:51;11.30;99.90
7360;DHT22;3720;48.274;7.796;2023-02-19T17:19:23;11.20;99.90
7360;DHT22;3720;48.274;7.796;2023-02-19T17:21:55;11.10;99.90
7360;DHT22;3720;48.274;7.796;2023-02-19T17:24:28;11.10;99.90